Time;durP1;ratioP1;P1;durP2;ratioP2;P2;SDS_P1;SDS_P2;PMS_P1;PMS_P2;Temp;Humidity;BMP_temperature;BMP_pressure;BME280_temperature;BME280_humidity;BME280_pressure;Samples;Min_cycle;Max_cycle;Signal;HPM_P1;HPM_P2
2023/09/05 00:00:44;;;;;;;11.65;5.05;;;15.30;99.90;;;;;;5026586;28;20486;-88
2023/09/05 00:03:10;;;;;;;9.70;4.90;;;15.30;99.90;;;;;;5024230;28;20673;-87
2023/09/05 00:05:36;;;;;;;9.15;4.55;;;15.30;99.90;;;;;;5034583;28;20485;-87
2023/09/05 00:08:02;;;;;;;9.15;4.55;;;15.20;99.90;;;;;;5045368;28;20032;-87
2023/09/05 00:10:28;;;;;;;9.98;4.70;;;15.20;99.90;;;;;;5030531;28;20044;-86
2023/09/05 00:12:53;;;;;;;9.52;4.90;;;15.20;99.90;;;;;;5022578;28;20036;-87
2023/09/05 00:15:19;;;;;;;10.05;4.68;;;15.20;99.90;;;;;;5037557;28;20112;-87
2023/09/05 00:17:45;;;;;;;9.43;4.80;;;15.10;99.90;;;;;;5026942;28;20056;-87
2023/09/05 00:20:15;;;;;;;9.23;4.32;;;15.10;99.90;;;;;;5028099;28;20148;-87
2023/09/05 00:22:42;;;;;;;10.52;4.18;;;15.10;99.90;;;;;;5027973;28;20120;-87
2023/09/05 00:25:11;;;;;;;9.15;4.45;;;15.20;99.90;;;;;;5037960;28;20048;-86
2023/09/05 00:27:39;;;;;;;9.45;4.95;;;15.10;99.90;;;;;;5029786;28;20036;-87
2023/09/05 00:30:05;;;;;;;9.48;4.70;;;15.10;99.90;;;;;;5034566;28;20056;-87
2023/09/05 00:32:32;;;;;;;9.63;4.93;;;15.10;99.90;;;;;;5026348;28;20119;-87
2023/09/05 00:34:58;;;;;;;8.80;4.50;;;15.10;99.90;;;;;;5031493;28;20052;-87
2023/09/05 00:37:24;;;;;;;9.40;4.78;;;15.10;99.90;;;;;;5021077;28;20041;-87
2023/09/05 00:39:50;;;;;;;10.43;5.13;;;15.00;99.90;;;;;;5028726;28;20033;-86
2023/09/05 00:42:17;;;;;;;9.65;4.72;;;15.10;99.90;;;;;;5043140;28;20036;-86
2023/09/05 00:44:47;;;;;;;9.43;4.57;;;15.10;99.90;;;;;;5038631;28;20032;-86
2023/09/05 00:47:13;;;;;;;9.05;4.43;;;15.00;99.90;;;;;;5025731;28;20041;-87
2023/09/05 00:49:41;;;;;;;9.43;4.47;;;15.00;99.90;;;;;;5041014;28;20037;-87
2023/09/05 00:52:09;;;;;;;13.43;4.80;;;15.00;99.90;;;;;;5034836;28;20091;-87
2023/09/05 00:54:36;;;;;;;11.82;4.78;;;15.00;99.90;;;;;;5039542;28;20036;-87
2023/09/05 00:57:02;;;;;;;10.48;4.55;;;15.00;99.90;;;;;;5025636;28;20044;-87
2023/09/05 00:59:27;;;;;;;8.98;4.65;;;14.90;99.90;;;;;;5047490;28;20037;-87
2023/09/05 01:01:56;;;;;;;9.20;4.35;;;14.90;99.90;;;;;;5026789;28;20119;-87
2023/09/05 01:04:24;;;;;;;9.73;4.93;;;14.90;99.90;;;;;;5039535;28;20037;-87
2023/09/05 01:07:00;;;;;;;9.90;4.95;;;14.90;99.90;;;;;;5061848;28;20108;-87
2023/09/05 01:09:38;;;;;;;8.90;4.40;;;14.90;99.90;;;;;;5040763;28;20040;-87
2023/09/05 01:12:05;;;;;;;10.23;4.32;;;14.90;99.90;;;;;;5043133;28;20722;-87
2023/09/05 01:14:30;;;;;;;10.77;4.85;;;14.90;99.90;;;;;;5031648;28;20090;-87
2023/09/05 01:17:01;;;;;;;9.38;4.70;;;14.80;99.90;;;;;;5024163;28;20139;-87
2023/09/05 01:19:28;;;;;;;9.57;4.80;;;14.80;99.90;;;;;;5026930;28;20048;-87
2023/09/05 01:22:13;;;;;;;10.35;4.68;;;14.80;99.90;;;;;;5060168;28;20041;-88
2023/09/05 01:24:40;;;;;;;8.98;4.65;;;14.80;99.90;;;;;;5041146;28;20436;-88
2023/09/05 01:27:11;;;;;;;9.88;4.70;;;14.80;99.90;;;;;;5022489;28;20077;-87
2023/09/05 01:29:39;;;;;;;9.85;4.72;;;14.80;99.90;;;;;;5042816;28;20037;-88
2023/09/05 01:32:09;;;;;;;9.73;4.80;;;14.80;99.90;;;;;;5027573;28;20383;-87
2023/09/05 01:34:38;;;;;;;8.73;4.57;;;14.80;99.90;;;;;;5022142;28;20114;-87
2023/09/05 01:37:04;;;;;;;9.32;4.75;;;14.80;99.90;;;;;;5035506;28;20051;-87
2023/09/05 01:39:29;;;;;;;9.82;4.60;;;14.80;99.90;;;;;;5022784;28;20044;-87
2023/09/05 01:41:58;;;;;;;8.80;4.72;;;14.80;99.90;;;;;;5026787;28;20041;-88
2023/09/05 01:44:23;;;;;;;10.18;4.72;;;14.70;99.90;;;;;;5037288;28;20390;-87
2023/09/05 01:46:49;;;;;;;10.20;4.90;;;14.70;99.90;;;;;;5047139;28;20060;-87
2023/09/05 01:49:15;;;;;;;9.57;4.85;;;14.70;99.90;;;;;;5021544;28;20120;-88
2023/09/05 01:51:40;;;;;;;10.18;4.60;;;14.70;99.90;;;;;;5009558;28;20128;-88
2023/09/05 01:54:06;;;;;;;9.55;4.95;;;14.60;99.90;;;;;;5034562;28;20092;-88
2023/09/05 01:56:32;;;;;;;9.73;5.03;;;14.60;99.90;;;;;;5027786;28;20213;-88
2023/09/05 01:58:58;;;;;;;9.38;4.63;;;14.60;99.90;;;;;;5044430;28;20069;-88
2023/09/05 02:01:23;;;;;;;9.65;5.28;;;14.60;99.90;;;;;;5040586;28;20508;-88
2023/09/05 02:03:50;;;;;;;9.68;5.00;;;14.60;99.90;;;;;;5020079;28;20033;-88
2023/09/05 02:06:15;;;;;;;9.60;5.07;;;14.60;99.90;;;;;;5016960;28;20091;-88
2023/09/05 02:08:42;;;;;;;11.32;5.15;;;14.60;99.90;;;;;;5042560;28;20049;-88
2023/09/05 02:11:11;;;;;;;10.18;4.88;;;14.60;99.90;;;;;;5023282;28;20041;-88
2023/09/05 02:13:37;;;;;;;9.95;4.95;;;14.60;99.90;;;;;;5027906;28;20482;-88
2023/09/05 02:16:02;;;;;;;11.75;5.50;;;14.60;99.90;;;;;;5040902;28;20153;-87
2023/09/05 02:18:28;;;;;;;9.27;5.05;;;14.60;99.90;;;;;;5036347;28;20132;-88
2023/09/05 02:20:59;;;;;;;9.68;5.13;;;14.50;99.90;;;;;;5038502;28;20663;-88
2023/09/05 02:23:24;;;;;;;9.43;4.95;;;14.50;99.90;;;;;;5031337;28;20047;-87
2023/09/05 02:25:58;;;;;;;9.40;5.00;;;14.50;99.90;;;;;;5024031;28;20033;-88
2023/09/05 02:28:24;;;;;;;9.93;5.57;;;14.50;99.90;;;;;;5035777;28;20249;-88
2023/09/05 02:30:50;;;;;;;9.52;4.78;;;14.40;99.90;;;;;;5025663;28;20210;-88
2023/09/05 02:33:16;;;;;;;11.43;5.22;;;14.50;99.90;;;;;;5038260;28;20049;-87
2023/09/05 02:35:42;;;;;;;10.43;5.13;;;14.40;99.90;;;;;;5025189;28;20032;-88
2023/09/05 02:38:08;;;;;;;10.63;5.55;;;14.40;99.90;;;;;;5025124;28;20106;-88
2023/09/05 02:40:34;;;;;;;9.43;5.10;;;14.40;99.90;;;;;;5060703;28;20033;-88
2023/09/05 02:43:01;;;;;;;9.20;5.03;;;14.40;99.90;;;;;;5019310;28;20207;-87
2023/09/05 02:45:27;;;;;;;9.07;4.80;;;14.40;99.90;;;;;;5020956;28;20033;-88
2023/09/05 02:47:52;;;;;;;9.73;5.22;;;14.40;99.90;;;;;;5033563;28;20044;-88
2023/09/05 02:50:18;;;;;;;10.30;5.20;;;14.30;99.90;;;;;;5060924;28;20044;-87
2023/09/05 02:52:44;;;;;;;11.35;5.40;;;14.30;99.90;;;;;;5038976;28;20131;-88
2023/09/05 02:55:09;;;;;;;9.35;5.32;;;14.30;99.90;;;;;;5015303;28;20055;-88
2023/09/05 02:57:35;;;;;;;11.38;5.45;;;14.30;99.90;;;;;;5032085;28;20033;-88
2023/09/05 03:00:01;;;;;;;9.40;5.15;;;14.30;99.90;;;;;;5028159;28;20036;-88
2023/09/05 03:02:26;;;;;;;9.75;5.38;;;14.30;99.90;;;;;;5043270;28;20120;-88
2023/09/05 03:04:55;;;;;;;10.30;5.72;;;14.30;99.90;;;;;;5028859;28;20466;-88
2023/09/05 03:07:21;;;;;;;9.07;4.70;;;14.30;99.90;;;;;;5032018;28;20819;-88
2023/09/05 03:09:50;;;;;;;10.02;5.22;;;14.30;99.90;;;;;;5061115;28;20060;-88
2023/09/05 03:12:16;;;;;;;10.68;5.97;;;14.30;99.90;;;;;;5035897;28;20041;-88
2023/09/05 03:14:42;;;;;;;10.30;5.40;;;14.30;99.90;;;;;;5029425;28;20102;-88
2023/09/05 03:17:09;;;;;;;9.85;5.03;;;14.30;99.90;;;;;;5026406;28;20514;-88
2023/09/05 03:19:38;;;;;;;10.23;5.72;;;14.20;99.90;;;;;;5026086;28;20033;-88
2023/09/05 03:22:04;;;;;;;10.20;5.80;;;14.20;99.90;;;;;;5039943;28;20206;-88
2023/09/05 03:24:30;;;;;;;10.23;5.40;;;14.20;99.90;;;;;;5045854;28;21508;-87
2023/09/05 03:26:55;;;;;;;12.10;5.75;;;14.20;99.90;;;;;;5052511;28;20033;-88
2023/09/05 03:29:21;;;;;;;10.23;5.38;;;14.20;99.90;;;;;;5052413;28;20063;-88
2023/09/05 03:31:47;;;;;;;9.20;4.80;;;14.20;99.90;;;;;;5051221;28;20647;-88
2023/09/05 03:34:13;;;;;;;10.05;5.38;;;14.20;99.90;;;;;;5033696;28;20552;-88
2023/09/05 03:36:38;;;;;;;11.38;5.78;;;14.10;99.90;;;;;;5050292;28;20075;-88
2023/09/05 03:39:04;;;;;;;10.30;5.10;;;14.20;99.90;;;;;;5032141;28;20036;-88
2023/09/05 03:41:30;;;;;;;10.05;5.32;;;14.20;99.90;;;;;;5051960;28;20032;-88
2023/09/05 03:43:56;;;;;;;10.27;5.68;;;14.20;99.90;;;;;;5061438;28;20571;-88
2023/09/05 03:46:22;;;;;;;10.15;5.55;;;15.80;99.90;;;;;;5048646;28;20040;-88
2023/09/05 03:48:49;;;;;;;10.18;5.55;;;14.20;99.90;;;;;;5041811;28;20497;-88
2023/09/05 03:51:15;;;;;;;10.85;5.80;;;14.20;99.90;;;;;;5045862;28;20040;-88
2023/09/05 03:53:41;;;;;;;10.65;5.30;;;14.20;99.90;;;;;;5051372;28;20059;-88
2023/09/05 03:56:06;;;;;;;10.07;5.60;;;14.10;99.90;;;;;;5048694;28;20049;-88
2023/09/05 03:58:32;;;;;;;10.73;5.47;;;14.10;99.90;;;;;;5055835;28;20690;-88
2023/09/05 04:01:02;;;;;;;10.02;5.25;;;14.10;99.90;;;;;;5052166;28;20121;-88
2023/09/05 04:03:27;;;;;;;10.23;5.57;;;14.10;99.90;;;;;;5050939;28;20040;-88
2023/09/05 04:05:53;;;;;;;10.85;5.53;;;14.10;99.90;;;;;;5053053;28;20037;-88
2023/09/05 04:08:19;;;;;;;9.38;4.93;;;13.70;99.90;;;;;;5062837;28;20035;-88
2023/09/05 04:10:44;;;;;;;10.57;5.93;;;14.00;99.90;;;;;;5050698;28;20029;-87
2023/09/05 04:13:10;;;;;;;10.52;5.60;;;14.10;99.90;;;;;;5040203;28;20037;-88
2023/09/05 04:15:37;;;;;;;9.95;5.68;;;14.00;99.90;;;;;;5049506;28;20028;-88
2023/09/05 04:18:02;;;;;;;10.23;5.68;;;14.00;99.90;;;;;;5068516;28;20134;-88
2023/09/05 04:20:31;;;;;;;10.90;5.82;;;14.00;99.90;;;;;;5074253;28;20168;-88
2023/09/05 04:22:56;;;;;;;10.50;5.28;;;14.00;99.90;;;;;;5065454;28;20028;-88
2023/09/05 04:25:26;;;;;;;10.70;6.00;;;13.90;99.90;;;;;;5073235;28;20050;-88
2023/09/05 04:27:54;;;;;;;10.10;5.43;;;13.90;99.90;;;;;;5069796;28;20051;-88
2023/09/05 04:30:20;;;;;;;10.27;5.28;;;13.90;99.90;;;;;;5059860;28;20032;-88
2023/09/05 04:32:45;;;;;;;10.90;5.70;;;13.90;99.90;;;;;;5061082;28;20044;-88
2023/09/05 04:35:11;;;;;;;9.98;5.65;;;13.90;99.90;;;;;;5073418;28;20037;-88
2023/09/05 04:37:37;;;;;;;10.27;5.38;;;13.90;99.90;;;;;;5057845;28;20047;-88
2023/09/05 04:40:03;;;;;;;11.23;5.63;;;13.90;99.90;;;;;;5059199;28;20029;-87
2023/09/05 04:42:29;;;;;;;10.40;5.68;;;13.80;99.90;;;;;;5040599;28;20127;-87
2023/09/05 04:44:55;;;;;;;10.65;5.70;;;13.80;99.90;;;;;;5044638;28;20165;-88
2023/09/05 04:47:26;;;;;;;10.10;5.38;;;13.70;99.90;;;;;;5042794;28;20150;-88
2023/09/05 04:49:53;;;;;;;11.13;5.47;;;13.70;99.90;;;;;;5062019;28;20052;-88
2023/09/05 04:52:21;;;;;;;10.75;5.65;;;13.70;99.90;;;;;;5057142;28;20078;-88
2023/09/05 04:54:47;;;;;;;10.52;5.80;;;13.70;99.90;;;;;;5048909;28;20488;-88
2023/09/05 04:57:14;;;;;;;10.32;5.40;;;13.70;99.90;;;;;;5065925;28;20165;-88
2023/09/05 04:59:43;;;;;;;9.93;5.60;;;13.70;99.90;;;;;;5070867;28;20032;-88
2023/09/05 05:02:09;;;;;;;10.70;5.80;;;13.70;99.90;;;;;;5079470;28;20105;-88
2023/09/05 05:04:37;;;;;;;10.88;5.68;;;13.70;99.90;;;;;;5065609;28;20481;-88
2023/09/05 05:07:03;;;;;;;10.38;5.50;;;13.70;99.90;;;;;;5080317;28;20067;-88
2023/09/05 05:09:28;;;;;;;10.00;5.63;;;13.70;99.90;;;;;;5068166;28;20075;-88
2023/09/05 05:11:55;;;;;;;10.82;5.60;;;13.70;99.90;;;;;;5082303;28;20039;-88
2023/09/05 05:14:21;;;;;;;10.77;6.07;;;13.70;99.90;;;;;;5082153;28;20093;-89
2023/09/05 05:16:49;;;;;;;12.18;5.95;;;13.70;99.90;;;;;;5073555;28;20037;-88
2023/09/05 05:19:14;;;;;;;10.40;5.50;;;13.70;99.90;;;;;;5071628;28;20172;-87
2023/09/05 05:21:40;;;;;;;11.45;6.15;;;13.70;99.90;;;;;;5036683;28;20037;-88
2023/09/05 05:24:07;;;;;;;10.30;5.78;;;13.80;99.90;;;;;;5066535;28;20119;-87
2023/09/05 05:26:33;;;;;;;10.20;5.50;;;13.80;99.90;;;;;;5068663;28;20580;-87
2023/09/05 05:28:59;;;;;;;10.32;5.40;;;13.80;99.90;;;;;;5052548;28;20044;-88
2023/09/05 05:31:25;;;;;;;10.73;5.72;;;13.80;99.90;;;;;;5068601;28;21207;-88
2023/09/05 05:33:51;;;;;;;10.15;5.18;;;13.80;99.90;;;;;;5066486;28;20058;-88
2023/09/05 05:36:17;;;;;;;9.88;4.97;;;13.80;99.90;;;;;;5042934;28;20651;-87
2023/09/05 05:38:43;;;;;;;10.32;5.32;;;13.70;99.90;;;;;;5067885;28;20557;-88
2023/09/05 05:41:11;;;;;;;10.52;5.97;;;13.80;99.90;;;;;;5058976;28;20039;-87
2023/09/05 05:43:37;;;;;;;9.85;5.68;;;13.80;99.90;;;;;;5068805;28;20048;-87
2023/09/05 05:46:03;;;;;;;11.90;6.07;;;13.90;99.90;;;;;;5064535;28;20050;-87
2023/09/05 05:48:28;;;;;;;10.23;5.38;;;13.90;99.90;;;;;;5074632;28;20032;-87
2023/09/05 05:50:55;;;;;;;11.23;5.72;;;14.00;99.90;;;;;;5069043;28;20032;-88
2023/09/05 05:53:22;;;;;;;11.00;6.20;;;14.00;99.90;;;;;;5067010;28;20048;-88
2023/09/05 05:55:47;;;;;;;10.80;5.82;;;14.00;99.90;;;;;;5070773;28;20037;-88
2023/09/05 05:58:14;;;;;;;11.85;6.20;;;14.00;99.90;;;;;;5069633;28;20043;-87
2023/09/05 06:00:46;;;;;;;13.27;5.93;;;14.10;99.90;;;;;;5075846;28;20032;-88
2023/09/05 06:03:12;;;;;;;11.23;5.93;;;14.20;99.90;;;;;;5060233;28;20044;-88
2023/09/05 06:05:38;;;;;;;9.88;5.55;;;14.30;99.90;;;;;;5069522;28;20036;-87
2023/09/05 06:08:04;;;;;;;9.65;5.13;;;13.80;99.90;;;;;;5067871;28;20033;-88
2023/09/05 06:10:30;;;;;;;11.27;6.28;;;14.40;99.90;;;;;;5066058;28;20725;-86
2023/09/05 06:12:56;;;;;;;10.93;6.13;;;14.50;99.90;;;;;;5064159;28;20309;-87
2023/09/05 06:15:22;;;;;;;10.57;5.80;;;14.60;99.90;;;;;;5074567;28;20032;-85
2023/09/05 06:17:48;;;;;;;11.80;6.38;;;14.70;99.90;;;;;;5071748;28;20143;-86
2023/09/05 06:20:14;;;;;;;10.90;6.05;;;14.90;99.90;;;;;;5075325;28;20124;-88
2023/09/05 06:22:39;;;;;;;11.80;6.18;;;14.90;99.90;;;;;;5045914;28;20045;-88
2023/09/05 06:25:05;;;;;;;11.27;5.70;;;15.10;99.90;;;;;;5070300;28;20485;-88
2023/09/05 06:27:32;;;;;;;11.45;6.15;;;15.20;99.90;;;;;;5075986;28;20337;-88
2023/09/05 06:29:57;;;;;;;11.32;6.20;;;15.30;99.90;;;;;;5065481;28;20060;-88
2023/09/05 06:32:23;;;;;;;11.60;6.07;;;15.40;99.90;;;;;;5031912;28;20497;-88
2023/09/05 06:34:50;;;;;;;11.00;6.13;;;15.40;99.90;;;;;;5068325;28;20044;-87
2023/09/05 06:37:16;;;;;;;10.82;5.65;;;15.50;99.90;;;;;;5076005;28;20047;-87
2023/09/05 06:39:42;;;;;;;11.27;6.07;;;15.60;99.90;;;;;;5064991;28;20472;-85
2023/09/05 06:42:09;;;;;;;11.82;6.15;;;15.70;99.90;;;;;;5071192;28;21539;-85
2023/09/05 06:44:34;;;;;;;11.02;6.10;;;15.80;99.90;;;;;;5070883;28;20493;-86
2023/09/05 06:47:00;;;;;;;10.73;6.07;;;15.90;99.90;;;;;;5077789;28;20085;-85
2023/09/05 06:49:26;;;;;;;12.30;6.57;;;16.00;99.90;;;;;;5073002;28;20056;-85
2023/09/05 06:51:52;;;;;;;10.77;6.25;;;16.10;99.90;;;;;;5073509;28;21093;-86
2023/09/05 06:54:18;;;;;;;10.63;5.88;;;16.30;99.90;;;;;;5075015;28;20067;-85
2023/09/05 06:56:43;;;;;;;11.20;6.43;;;16.30;99.90;;;;;;5073225;28;20056;-86
2023/09/05 06:59:16;;;;;;;11.27;6.18;;;16.50;99.90;;;;;;5073718;28;20040;-86
2023/09/05 07:01:46;;;;;;;10.20;5.63;;;16.70;99.90;;;;;;5068361;28;20040;-86
2023/09/05 07:04:13;;;;;;;12.38;6.45;;;16.70;99.90;;;;;;5042398;28;20044;-87
2023/09/05 07:06:39;;;;;;;11.63;6.40;;;16.80;99.90;;;;;;5068795;28;20097;-86
2023/09/05 07:09:08;;;;;;;13.50;6.07;;;16.90;99.90;;;;;;5073534;28;20031;-87
2023/09/05 07:11:34;;;;;;;11.18;5.82;;;17.00;99.90;;;;;;5062422;28;20715;-86
2023/09/05 07:14:00;;;;;;;11.45;5.80;;;17.10;99.90;;;;;;5077892;28;20025;-88
2023/09/05 07:16:26;;;;;;;11.73;6.50;;;17.20;99.90;;;;;;5073948;28;20068;-86
2023/09/05 07:18:53;;;;;;;11.90;6.00;;;17.30;99.90;;;;;;5037948;28;20441;-88
2023/09/05 07:21:19;;;;;;;11.68;6.13;;;17.40;99.90;;;;;;5053828;28;20051;-88
2023/09/05 07:23:44;;;;;;;11.10;6.22;;;17.60;99.90;;;;;;5052075;28;20037;-87
2023/09/05 07:26:10;;;;;;;12.18;5.68;;;17.70;99.90;;;;;;5057554;28;20123;-88
2023/09/05 07:28:36;;;;;;;10.55;5.78;;;17.80;99.90;;;;;;5054613;28;20277;-87
2023/09/05 07:31:02;;;;;;;11.90;6.18;;;17.90;99.90;;;;;;5051275;28;20033;-88
2023/09/05 07:33:28;;;;;;;10.77;5.90;;;18.10;99.90;;;;;;5056826;28;20432;-87
2023/09/05 07:35:54;;;;;;;10.80;6.05;;;18.20;99.90;;;;;;5043295;28;20037;-86
2023/09/05 07:38:21;;;;;;;14.45;5.97;;;18.30;99.90;;;;;;5053533;28;20047;-87
2023/09/05 07:40:50;;;;;;;11.05;5.45;;;18.40;99.90;;;;;;5052195;28;20102;-88
2023/09/05 07:43:16;;;;;;;12.13;6.20;;;18.50;99.90;;;;;;5051091;28;20127;-88
2023/09/05 07:45:41;;;;;;;10.60;5.70;;;18.60;99.90;;;;;;5036703;28;20131;-88
2023/09/05 07:48:08;;;;;;;10.68;5.75;;;18.80;99.90;;;;;;5053619;28;20767;-88
2023/09/05 07:50:37;;;;;;;10.70;5.50;;;18.90;99.90;;;;;;5063791;28;20041;-88
2023/09/05 07:53:10;;;;;;;10.70;5.63;;;19.10;99.90;;;;;;5063891;28;20051;-88
2023/09/05 07:55:36;;;;;;;11.77;5.53;;;19.10;99.90;;;;;;5059452;28;20056;-88
2023/09/05 07:58:02;;;;;;;11.73;5.88;;;19.30;99.90;;;;;;5043269;28;20068;-88
2023/09/05 08:00:27;;;;;;;11.07;5.93;;;19.40;99.90;;;;;;5060260;28;20482;-88
2023/09/05 08:02:53;;;;;;;12.05;5.95;;;19.50;99.90;;;;;;5031423;28;20048;-87
2023/09/05 08:05:22;;;;;;;11.55;5.88;;;19.60;99.90;;;;;;5054582;28;20592;-87
2023/09/05 08:07:48;;;;;;;13.50;5.72;;;19.70;99.90;;;;;;5059196;28;20036;-87
2023/09/05 08:10:16;;;;;;;11.00;5.45;;;19.80;99.90;;;;;;5055832;28;20129;-89
2023/09/05 08:12:42;;;;;;;10.65;5.57;;;19.90;99.90;;;;;;5036148;28;20461;-88
2023/09/05 08:15:09;;;;;;;9.98;5.25;;;20.00;99.90;;;;;;5042232;28;20527;-88
2023/09/05 08:17:35;;;;;;;10.25;4.90;;;20.20;99.90;;;;;;5057172;28;20579;-90
2023/09/05 08:20:03;;;;;;;10.02;4.82;;;20.00;99.90;;;;;;5064329;28;20049;-89
2023/09/05 08:22:29;;;;;;;9.82;5.20;;;20.40;99.90;;;;;;5048040;28;20499;-89
2023/09/05 08:24:59;;;;;;;9.32;4.38;;;20.50;99.90;;;;;;5050809;28;20127;-88
2023/09/05 08:27:30;;;;;;;9.18;4.53;;;20.60;99.90;;;;;;5065903;28;20436;-89
2023/09/05 08:29:57;;;;;;;9.55;4.68;;;20.80;99.90;;;;;;5041258;28;20036;-89
2023/09/05 08:32:23;;;;;;;12.10;4.28;;;20.80;99.90;;;;;;5044557;28;20040;-90
2023/09/05 08:34:49;;;;;;;10.95;4.43;;;20.90;99.90;;;;;;5069544;28;20036;-89
2023/09/05 08:37:19;;;;;;;8.18;4.03;;;21.20;99.90;;;;;;5041637;28;20140;-89
2023/09/05 08:39:45;;;;;;;9.65;4.03;;;21.20;99.90;;;;;;5035904;28;20118;-90
2023/09/05 08:42:11;;;;;;;8.68;4.28;;;21.40;99.90;;;;;;5061367;28;20079;-89
2023/09/05 08:44:41;;;;;;;9.10;4.40;;;21.50;99.90;;;;;;5034473;28;20041;-89
2023/09/05 08:47:07;;;;;;;8.57;4.05;;;21.70;99.90;;;;;;5062411;28;20390;-91
2023/09/05 08:49:33;;;;;;;8.40;4.28;;;21.80;99.90;;;;;;5052863;28;20343;-90
2023/09/05 08:52:03;;;;;;;10.60;4.63;;;21.90;99.90;;;;;;5072625;28;20427;-90
2023/09/05 08:54:30;;;;;;;10.40;4.70;;;22.50;99.90;;;;;;5059490;28;20043;-92
2023/09/05 08:57:02;;;;;;;10.00;4.32;;;22.10;99.90;;;;;;5024036;28;20039;-90
2023/09/05 08:59:29;;;;;;;9.25;3.67;;;22.10;99.90;;;;;;5066928;28;20044;-88
2023/09/05 09:01:55;;;;;;;8.43;4.03;;;22.30;99.90;;;;;;5062931;28;20071;-89
2023/09/05 09:04:21;;;;;;;9.20;4.20;;;22.30;99.90;;;;;;5049777;28;20124;-89
2023/09/05 09:06:55;;;;;;;9.95;4.38;;;22.30;99.90;;;;;;5058742;28;20036;-89
2023/09/05 09:09:40;;;;;;;11.90;4.10;;;22.40;99.90;;;;;;5052186;28;20558;-90
2023/09/05 09:12:06;;;;;;;9.50;4.55;;;22.50;99.90;;;;;;5032158;28;20086;-88
2023/09/05 09:14:32;;;;;;;9.57;4.53;;;22.50;99.90;;;;;;5071897;28;20471;-88
2023/09/05 09:17:05;;;;;;;10.18;4.10;;;22.60;99.90;;;;;;5036523;28;20081;-88
2023/09/05 09:19:31;;;;;;;8.98;4.03;;;22.70;99.90;;;;;;5056969;28;20056;-87
2023/09/05 09:22:01;;;;;;;9.48;3.58;;;22.70;99.90;;;;;;5062191;28;20087;-88
2023/09/05 09:24:34;;;;;;;7.85;3.55;;;22.80;99.90;;;;;;5059223;28;20041;-88
2023/09/05 09:27:02;;;;;;;8.10;3.83;;;22.80;99.90;;;;;;5045948;28;20045;-87
2023/09/05 09:29:28;;;;;;;10.15;3.85;;;22.90;99.90;;;;;;5040727;28;20040;-87
2023/09/05 09:32:06;;;;;;;9.15;4.00;;;23.00;99.90;;;;;;5044968;28;20040;-87
2023/09/05 09:34:38;;;;;;;9.02;3.50;;;23.20;99.90;;;;;;5052559;28;20040;-88
2023/09/05 09:37:04;;;;;;;8.65;3.90;;;23.20;99.90;;;;;;5064844;28;20039;-87
2023/09/05 09:39:33;;;;;;;8.05;3.10;;;23.30;99.90;;;;;;5058796;28;20055;-87
2023/09/05 09:42:00;;;;;;;9.30;4.00;;;23.40;99.90;;;;;;5045511;28;20040;-86
2023/09/05 09:44:32;;;;;;;8.60;3.75;;;23.50;99.90;;;;;;5059477;28;20075;-87
2023/09/05 09:46:59;;;;;;;8.70;3.70;;;23.50;99.90;;;;;;5043132;28;20381;-86
2023/09/05 09:49:26;;;;;;;8.60;3.88;;;23.50;99.90;;;;;;5057904;28;20048;-88
2023/09/05 09:52:04;;;;;;;8.40;3.75;;;23.70;99.90;;;;;;5057907;28;20113;-88
2023/09/05 09:54:36;;;;;;;9.02;3.22;;;22.20;99.90;;;;;;5069518;28;20119;-86
2023/09/05 09:57:05;;;;;;;;;;;23.80;99.90;;;;;;5060855;28;20043;-89
2023/09/05 09:59:36;;;;;;;7.07;2.70;;;24.00;99.90;;;;;;5059123;28;19917;-88
2023/09/05 10:02:09;;;;;;;7.72;3.50;;;24.00;99.90;;;;;;5039128;28;20421;-88
2023/09/05 10:04:35;;;;;;;9.20;3.50;;;23.20;99.90;;;;;;5076525;28;20101;-87
2023/09/05 10:07:05;;;;;;;8.68;3.38;;;24.10;99.90;;;;;;5063237;28;20075;-87
2023/09/05 10:09:37;;;;;;;7.68;3.03;;;24.20;99.90;;;;;;5062999;28;20043;-90
2023/09/05 10:12:05;;;;;;;7.93;3.33;;;24.30;99.90;;;;;;5070056;28;20098;-89
2023/09/05 10:14:34;;;;;;;7.07;2.97;;;24.30;99.90;;;;;;5047042;28;20509;-89
2023/09/05 10:17:01;;;;;;;7.40;2.80;;;24.50;99.90;;;;;;5069914;28;20042;-89
2023/09/05 10:19:30;;;;;;;8.25;2.78;;;24.50;99.90;;;;;;5050951;28;20124;-88
2023/09/05 10:21:58;;;;;;;6.53;2.40;;;24.60;99.90;;;;;;5053824;28;20428;-89
2023/09/05 10:24:34;;;;;;;6.70;2.72;;;24.70;99.90;;;;;;5044518;28;20048;-89
2023/09/05 10:27:00;;;;;;;7.05;2.72;;;24.70;99.90;;;;;;5063907;28;20085;-90
2023/09/05 10:29:46;;;;;;;8.40;2.88;;;24.80;99.90;;;;;;5070752;28;20447;-89
2023/09/05 10:32:18;;;;;;;8.32;3.00;;;24.90;99.90;;;;;;5041253;28;20044;-89
2023/09/05 10:34:47;;;;;;;7.43;2.78;;;24.90;99.90;;;;;;5070997;28;20039;-89
2023/09/05 10:37:13;;;;;;;6.15;2.33;;;25.10;99.90;;;;;;5065812;28;20398;-89
2023/09/05 10:39:46;;;;;;;6.88;2.50;;;25.10;99.90;;;;;;5045690;28;20166;-88
2023/09/05 10:42:13;;;;;;;6.30;2.47;;;25.10;99.90;;;;;;5048974;28;20123;-87
2023/09/05 10:44:44;;;;;;;6.90;2.50;;;25.30;99.90;;;;;;5060211;28;20044;-88
2023/09/05 10:47:31;;;;;;;7.20;2.42;;;25.30;99.90;;;;;;5064211;28;20055;-88
2023/09/05 10:50:06;;;;;;;6.13;2.22;;;25.40;99.90;;;;;;5084616;28;20028;-87
2023/09/05 10:52:32;;;;;;;6.05;2.00;;;25.40;99.90;;;;;;5065927;28;21764;-88
2023/09/05 10:55:18;;;;;;;6.63;2.28;;;25.50;99.90;;;;;;5067507;28;20036;-88
2023/09/05 10:57:47;;;;;;;6.35;2.30;;;25.50;99.90;;;;;;5055086;28;20174;-88
2023/09/05 11:00:16;;;;;;;7.50;2.35;;;27.20;99.90;;;;;;5053864;28;20037;-87
2023/09/05 11:02:43;;;;;;;6.55;2.15;;;25.60;99.90;;;;;;5063940;28;20036;-89
2023/09/05 11:05:20;;;;;;;6.07;2.10;;;23.20;99.90;;;;;;5052039;28;20050;-87
2023/09/05 11:07:48;;;;;;;6.53;2.20;;;25.70;99.90;;;;;;5048751;28;20052;-88
2023/09/05 11:10:33;;;;;;;7.03;2.50;;;25.60;99.90;;;;;;5080155;28;20040;-88
2023/09/05 11:13:10;;;;;;;6.80;2.20;;;25.70;99.90;;;;;;5045190;28;20137;-87
2023/09/05 11:15:43;;;;;;;5.82;2.00;;;25.80;99.90;;;;;;5073297;28;20039;-88
2023/09/05 11:18:12;;;;;;;5.22;2.10;;;26.00;99.90;;;;;;5070083;28;20042;-88
2023/09/05 11:20:39;;;;;;;5.50;1.95;;;26.00;99.90;;;;;;5065570;28;20045;-89
2023/09/05 11:23:20;;;;;;;6.22;2.15;;;25.90;99.90;;;;;;5047228;28;20478;-87
2023/09/05 11:25:53;;;;;;;6.22;1.90;;;26.00;99.90;;;;;;5062551;28;20496;-86
2023/09/05 11:28:24;;;;;;;5.47;1.92;;;26.30;99.90;;;;;;5057711;28;20490;-87
2023/09/05 11:30:57;;;;;;;5.00;1.80;;;26.10;99.90;;;;;;5065600;28;20548;-87
2023/09/05 11:33:24;;;;;;;5.68;2.00;;;26.20;99.90;;;;;;5067782;28;20056;-87
2023/09/05 11:35:51;;;;;;;5.20;1.90;;;26.20;99.90;;;;;;5046554;28;20127;-86
2023/09/05 11:38:18;;;;;;;5.18;2.00;;;26.20;99.90;;;;;;5065814;28;20070;-86
2023/09/05 11:40:51;;;;;;;7.20;1.98;;;26.30;99.90;;;;;;5062697;28;20040;-86
2023/09/05 11:43:17;;;;;;;5.13;1.80;;;26.30;99.90;;;;;;5045780;28;20548;-86
2023/09/05 11:45:45;;;;;;;6.05;1.85;;;26.30;99.90;;;;;;5061616;28;20119;-86
2023/09/05 11:48:14;;;;;;;6.50;2.08;;;27.00;99.90;;;;;;5041835;28;20055;-88
2023/09/05 11:50:43;;;;;;;4.80;1.83;;;26.40;99.90;;;;;;5061129;28;20036;-87
2023/09/05 11:53:11;;;;;;;7.18;2.05;;;26.50;99.90;;;;;;5046639;28;20131;-87
2023/09/05 11:55:38;;;;;;;4.50;1.67;;;25.80;99.90;;;;;;5063971;28;20072;-87
2023/09/05 11:58:05;;;;;;;5.93;2.05;;;;;;;;;;5042509;28;20074;-86
2023/09/05 12:00:35;;;;;;;5.70;2.03;;;26.60;99.90;;;;;;5068340;28;20083;-87
2023/09/05 12:03:01;;;;;;;6.28;2.25;;;26.70;99.90;;;;;;5063655;28;20488;-86
2023/09/05 12:05:28;;;;;;;7.82;2.10;;;26.70;99.90;;;;;;5071334;28;20036;-87
2023/09/05 12:07:55;;;;;;;6.45;2.10;;;26.70;99.90;;;;;;5064031;28;20044;-87
2023/09/05 12:10:24;;;;;;;5.57;2.10;;;26.80;99.90;;;;;;5059917;28;20055;-86
2023/09/05 12:12:58;;;;;;;7.10;2.10;;;26.80;99.90;;;;;;5061655;28;20235;-87
2023/09/05 12:15:28;;;;;;;5.65;2.15;;;26.90;99.90;;;;;;5056406;28;20072;-87
2023/09/05 12:17:55;;;;;;;7.32;2.17;;;26.90;99.90;;;;;;5053925;28;20044;-89
2023/09/05 12:20:21;;;;;;;7.50;2.40;;;27.00;99.90;;;;;;5040745;28;20052;-88
2023/09/05 12:22:47;;;;;;;5.70;2.10;;;27.00;99.90;;;;;;5041424;28;20044;-88
2023/09/05 12:25:15;;;;;;;6.53;2.33;;;26.90;99.90;;;;;;5061629;28;20048;-87
2023/09/05 12:27:46;;;;;;;10.75;2.40;;;26.90;99.90;;;;;;5073212;28;20037;-88
2023/09/05 12:30:24;;;;;;;5.10;2.00;;;27.00;99.90;;;;;;5042097;28;20052;-87
2023/09/05 12:33:00;;;;;;;7.57;2.08;;;27.10;99.90;;;;;;5068629;28;20047;-89
2023/09/05 12:35:28;;;;;;;7.03;2.30;;;27.00;99.90;;;;;;5063664;28;20044;-88
2023/09/05 12:37:56;;;;;;;5.00;1.90;;;27.10;99.90;;;;;;5044796;28;20110;-87
2023/09/05 12:40:23;;;;;;;6.18;2.00;;;27.10;99.90;;;;;;5063925;28;20067;-89
2023/09/05 12:42:49;;;;;;;6.10;2.03;;;27.20;99.90;;;;;;5073403;28;20047;-89
2023/09/05 12:45:16;;;;;;;6.63;2.17;;;27.20;99.90;;;;;;5065636;28;20436;-88